ADDS METAR Data INFO
IDs: Format: Raw Decoded Include TAF

Data at: 2053 UTC 24 Jun 2017

KF46 242035Z AUTO 09007KT 10SM BKN028 BKN034 25/20 A3010 RMK AO2 T02520201
KF46 242015Z AUTO 07009KT 10SM BKN028 OVC032 25/20 A3010 RMK AO2 T02500197
KF46 241955Z AUTO 06012G18KT 10SM SCT019 BKN025 OVC030 25/21 A3010 RMK AO2 T02540206
KF46 241935Z AUTO 05015G19KT 10SM BKN019 OVC028 25/22 A3009 RMK AO2 T02540219
KF46 241915Z AUTO 05013G18KT 10SM BKN017 26/22 A3009 RMK AO2 T02590222
KF46 241855Z AUTO 04012G15KT 10SM BKN015 26/22 A3009 RMK AO2 T02550224
KF46 241835Z AUTO 03008G18KT 10SM BKN013 BKN020 25/22 A3010 RMK AO2 T02480221
KF46 241815Z AUTO 05010G14KT 10SM OVC013 25/22 A3011 RMK AO2 T02450223
KF46 241755Z AUTO 04011G15KT 10SM BKN011 24/22 A3011 RMK AO2 T02410224 10241 20208
KF46 241735Z AUTO 03010KT 10SM CLR 24/22 A3012 RMK AO2 T02370220
KF46 241715Z AUTO 02011KT 10SM SCT008 23/22 A3012 RMK AO2 T02270219
KF46 241655Z AUTO 02009KT 10SM CLR 22/22 A3013 RMK AO2 T02220218
KF46 241635Z AUTO 00000KT 10SM SCT110 22/22 A3013 RMK AO2 T02160216
KF46 241615Z AUTO 30003KT 10SM -RA SCT037 SCT050 BKN095 21/21 A3014 RMK AO2 LTG DSNT S T02110211
KF46 241555Z AUTO 33006KT 10SM -RA OVC095 21/21 A3016 RMK AO2 T02120212
KF46 241535Z AUTO 31004KT 10SM -RA SCT065 OVC095 21/21 A3015 RMK AO2 T02100210
KF46 241515Z AUTO 31005KT 7SM RA SCT075 OVC095 21/21 A3018 RMK AO2 T02080206
KF46 241455Z AUTO 32005KT 10SM -RA OVC095 21/21 A3018 RMK AO2 T02110208
KF46 241435Z AUTO 31004KT 10SM -RA OVC095 21/21 A3017 RMK AO2 LTG DSNT E AND W T02110207
KF46 241415Z AUTO 33005KT 7SM -RA SCT031 BKN060 OVC085 21/21 A3016 RMK AO2 LTG DSNT N NE AND S T02130211
KF46 241355Z AUTO 33008KT 4SM TSRA SCT006 BKN033 OVC060 22/22 A3015 RMK AO2 LTG DSNT ALQS T02170217
KF46 241335Z AUTO 33008KT 5SM +VCTSRA SCT006 BKN010 OVC016 22/22 A3016 RMK AO2 LTG DSNT ALQS T02200220
KF46 241315Z AUTO 35008KT 7SM TSRA SCT005 OVC009 22/22 A3015 RMK AO2 LTG DSNT SW THRU N T02210221
KF46 241255Z AUTO 00000KT 10SM VCTS BKN007 OVC012 22/22 A3013 RMK AO2 LTG DSNT SW THRU N T02220222
KF46 241235Z AUTO 00000KT 10SM SCT006 OVC010 22/22 A3010 RMK AO2 LTG DSNT W THRU N T02210221
KF46 241215Z AUTO 00000KT 10SM BKN006 OVC012 22/22 A3008 RMK AO2 LTG DSNT W THRU N T02240223
KF46 241155Z AUTO 14004KT 10SM BKN008 BKN012 OVC075 22/22 A3007 RMK AO2 LTG DSNT W THRU N 70001 T02240224 10225 20215
KF46 241135Z AUTO 13003KT 10SM BKN006 BKN012 OVC075 23/23 A3004 RMK AO2 LTG DSNT W THRU N T02250225
KF46 241115Z AUTO 00000KT 10SM SCT006 OVC075 22/22 A3004 RMK AO2 LTG DSNT SE S AND NW T02230223
KF46 241055Z AUTO 00000KT 10SM BKN085 BKN090 OVC110 22/22 A3002 RMK AO2 LTG DSNT SE THRU NW T02230222
KF46 241035Z AUTO 04004KT 10SM TS OVC070 23/22 A3002 RMK AO2 LTG DSNT ALQS T02250222
KF46 241015Z AUTO 14004KT 10SM -RA SCT016 OVC070 23/22 A3001 RMK AO2 LTG DSNT N AND SE T02250222
KF46 240955Z AUTO 15004KT 10SM -DZ BKN016 OVC060 22/22 A3000 RMK AO2 LTG DSNT SE AND NW T02230221
KF46 240935Z AUTO 00000KT 10SM VCTS SCT014 OVC050 22/22 A2999 RMK AO2 LTG DSNT SE THRU SW T02220222
KF46 240915Z AUTO 07003KT 10SM OVC050 22/22 A2999 RMK AO2 LTG DSNT ALQS T02220221
KF46 240855Z AUTO 08004KT 10SM VCTS SCT046 BKN050 BKN065 22/22 A2999 RMK AO2 LTG DSNT ALQS T02210221
KF46 240835Z AUTO 00000KT 10SM VCTS SCT044 22/22 A2997 RMK AO2 LTG DSNT E THRU SW T02200220
KF46 240815Z AUTO 00000KT 10SM TS CLR 22/22 A2997 RMK AO2 LTG DSNT E THRU W T02180218
KF46 240755Z AUTO 33003KT 10SM VCTS CLR 22/22 A2993 RMK AO2 LTG DSNT ALQS T02190215
KF46 240735Z AUTO 00000KT 10SM VCTS CLR 22/22 A2995 RMK AO2 LTG DSNT ALQS T02160216
KF46 240715Z AUTO 10010G16KT 10SM VCTS SCT011 22/22 A2998 RMK AO2 LTG DSNT ALQS T02150215
KF46 240655Z AUTO 12005KT 10SM VCTS CLR 22/22 A2996 RMK AO2 LTG DSNT ALQS T02180218
KF46 240635Z AUTO 00000KT 10SM -VCTSRA SCT110 22/22 A2996 RMK AO2 LTG DSNT ALQS T02200220
KF46 240615Z AUTO 17008G18KT 5SM RA SCT030 BKN070 OVC095 22/22 A2999 RMK AO2 T02210221
KF46 240555Z AUTO 22011G14KT 3SM +TSRA 22/22 A2997 RMK AO2 LTG DSNT ALQS 60001 T02190219 10340 20218 403550218
KF46 240540Z AUTO 29005KT TS 22/22 A2999 RMK AO2 LTG DSNT ALQS T02210221
KF46 240515Z AUTO 07019G31KT 10SM -TSRA SCT021 BKN031 OVC045 23/20 A2995 RMK AO2 LTG DSNT ALQS T02330203
KF46 240455Z AUTO 04020G29KT 10SM VCTS SCT021 BKN031 OVC110 26/20 A2992 RMK AO2 LTG DSNT ALQS P0001 T02640203
KF46 240435Z AUTO 14010G18KT 100V180 10SM SCT055 SCT065 BKN110 29/26 A2992 RMK AO2 LTG DSNT NW THRU E T02900257
KF46 240415Z AUTO 17005KT 10SM SCT055 BKN075 29/25 A2992 RMK AO2 LTG DSNT N AND NE T02910254
KF46 240355Z AUTO 17005KT 10SM BKN055 29/25 A2992 RMK AO2 LTG DSNT N AND NE T02930250
KF46 240335Z AUTO 15006KT 10SM SCT055 30/25 A2990 RMK AO2 LTG DSNT N AND NE T02950248
KF46 240315Z AUTO 13005KT 10SM CLR 30/25 A2988 RMK AO2 LTG DSNT N AND NE T02960246
KF46 240255Z AUTO 18005KT 10SM CLR 30/25 A2987 RMK AO2 LTG DSNT NE T02950250
KF46 240235Z AUTO 18005KT 10SM CLR 30/25 A2986 RMK AO2 T03000250
KF46 240215Z AUTO 14005KT 10SM CLR 30/25 A2985 RMK AO2 T03040248
KF46 240155Z AUTO 10004KT 10SM CLR 31/25 A2985 RMK AO2 T03100246
KF46 240135Z AUTO 08005KT 10SM CLR 32/25 A2985 RMK AO2 T03150247
KF46 240115Z AUTO 08007KT 10SM CLR 32/24 A2984 RMK AO2 T03200243
KF46 240055Z AUTO 08004KT 10SM CLR 33/24 A2983 RMK AO2 T03250244
KF46 240035Z AUTO 09006KT 10SM CLR 33/24 A2982 RMK AO2 T03320239
KF46 240015Z AUTO 10009KT 10SM CLR 34/24 A2982 RMK AO2 T03350241
KF46 232355Z AUTO 09007KT 10SM CLR 34/24 A2981 RMK AO2 T03400241 10355 20319
KF46 232335Z AUTO 11005KT 10SM CLR 34/24 A2980 RMK AO2 T03440239
KF46 232315Z AUTO 15003KT 10SM CLR 35/24 A2980 RMK AO2 T03450238
KF46 232255Z AUTO 20009KT 10SM CLR 35/23 A2980 RMK AO2 T03500231
KF46 232235Z AUTO 00000KT 10SM CLR 35/23 A2980 RMK AO2 T03490234
KF46 232215Z AUTO 00000KT 10SM CLR 35/23 A2981 RMK AO2 T03500234
KF46 232155Z AUTO 00000KT 10SM CLR 35/24 A2982 RMK AO2 T03520236
KF46 232135Z AUTO 00000KT 10SM CLR 35/23 A2981 RMK AO2 T03500228
KF46 232115Z AUTO 00000KT 10SM CLR 35/23 A2981 RMK AO2 T03480233
KF46 232055Z AUTO 28003KT 10SM CLR 35/23 A2982 RMK AO2 T03450230
KF46 232035Z AUTO 29009KT 270V350 10SM CLR 34/23 A2982 RMK AO2 T03420234
KF46 232015Z AUTO 26005KT 10SM CLR 34/24 A2982 RMK AO2 T03410241
KF46 231955Z AUTO 19005KT 10SM CLR 34/25 A2982 RMK AO2 T03410245
KF46 231935Z AUTO 19008KT 140V210 10SM CLR 34/24 A2982 RMK AO2 T03350241
KF46 231915Z AUTO 21008KT 190V250 10SM CLR 34/25 A2982 RMK AO2 T03360245
KF46 231855Z AUTO 19008KT 10SM CLR 33/24 A2983 RMK AO2 T03320244
KF46 231835Z AUTO 20007G14KT 10SM CLR 33/24 A2982 RMK AO2 T03270240
KF46 231815Z AUTO 16007G20KT 10SM CLR 33/25 A2982 RMK AO2 T03260247
KF46 231755Z AUTO 20008G19KT 10SM CLR 32/25 A2982 RMK AO2 T03190248 10321 20242
KF46 231735Z AUTO 16008G18KT 120V190 10SM CLR 32/25 A2982 RMK AO2 T03170250
KF46 231715Z AUTO 16008G17KT 130V200 10SM SCT024 31/25 A2982 RMK AO2 T03130247
KF46 231655Z AUTO 16006G16KT 10SM SCT022 31/25 A2982 RMK AO2 T03070245
KF46 231635Z AUTO 15008G14KT 130V190 10SM SCT020 31/25 A2983 RMK AO2 T03060246
KF46 231615Z AUTO 16008G16KT 10SM SCT016 30/25 A2981 RMK AO2 T02960250
KF46 231555Z AUTO 16007G17KT 10SM SCT014 29/25 A2983 RMK AO2 T02890248
KF46 231535Z AUTO 20007KT 150V220 10SM BKN014 28/25 A2983 RMK AO2 T02810247
KF46 231515Z AUTO 20012G16KT 10SM OVC012 28/25 A2983 RMK AO2 T02760247
KF46 231455Z AUTO 20008KT 10SM OVC010 28/25 A2982 RMK AO2 LTG DSNT E T02750250
KF46 231435Z AUTO 19008KT 10SM OVC008 27/25 A2982 RMK AO2 T02650249
KF46 231415Z AUTO 19009G15KT 10SM OVC008 26/25 A2981 RMK AO2 T02590247
KF46 231355Z AUTO 19010G15KT 10SM OVC006 26/25 A2980 RMK AO2 T02550247
KF46 231335Z AUTO 19009KT 10SM OVC006 26/25 A2979 RMK AO2 T02550250
KF46 231315Z AUTO 18009KT 10SM OVC006 25/25 A2978 RMK AO2 T02510248
KF46 231255Z AUTO 18010KT 10SM BKN006 25/25 A2978 RMK AO2 T02480245
KF46 231235Z AUTO 19008KT 10SM SCT006 25/24 A2977 RMK AO2 T02450243
KF46 231215Z AUTO 17006KT 10SM CLR 25/24 A2976 RMK AO2 T02450242
KF46 231155Z AUTO 17009KT 10SM CLR 24/24 A2976 RMK AO2 T02420240 10256 20237
KF46 231135Z AUTO 18009KT 10SM CLR 24/24 A2975 RMK AO2 T02400238
KF46 231115Z AUTO 20006KT 10SM CLR 24/24 A2975 RMK AO2 T02400237
KF46 231055Z AUTO 15008KT 10SM CLR 24/24 A2973 RMK AO2 LTG DSNT NW T02370235
KF46 231035Z AUTO 16007KT 10SM CLR 24/23 A2973 RMK AO2 T02370234
KF46 231015Z AUTO 16004KT 10SM CLR 24/23 A2974 RMK AO2 T02380233
KF46 230955Z AUTO 17003KT 10SM CLR 24/23 A2974 RMK AO2 T02400233
KF46 230935Z AUTO 15004KT 10SM CLR 24/23 A2974 RMK AO2 T02410233
KF46 230915Z AUTO 15006KT 10SM CLR 24/24 A2973 RMK AO2 T02430235
KF46 230855Z AUTO 17005KT 10SM CLR 25/24 A2974 RMK AO2 T02450235


Page loaded:  20:53 UTC  |   01:53 PM Pacific  |   02:53 PM Mountain  |   03:53 PM Central  |   04:53 PM Eastern

 

ADVISORIES

FORECASTS

FORECASTS

OBSERVATIONS

USER TOOLS

ABOUT US